sensor_id;sensor_type;location;lat;lon;timestamp;temperature;humidity
16038;DHT22;8123;50.906;6.172;2023-02-28T00:01:22;0.50;99.90
16038;DHT22;8123;50.906;6.172;2023-02-28T00:03:47;0.60;99.90
16038;DHT22;8123;50.906;6.172;2023-02-28T00:06:13;0.50;99.90
16038;DHT22;8123;50.906;6.172;2023-02-28T00:08:39;0.60;99.90
16038;DHT22;8123;50.906;6.172;2023-02-28T00:11:10;0.60;99.90
16038;DHT22;8123;50.906;6.172;2023-02-28T00:13:42;0.60;99.90
16038;DHT22;8123;50.906;6.172;2023-02-28T00:16:13;0.60;99.90
16038;DHT22;8123;50.906;6.172;2023-02-28T00:18:39;0.60;99.90
16038;DHT22;8123;50.906;6.172;2023-02-28T00:21:05;0.50;99.90
16038;DHT22;8123;50.906;6.172;2023-02-28T00:23:31;0.50;99.90
16038;DHT22;8123;50.906;6.172;2023-02-28T00:25:57;0.50;99.90
16038;DHT22;8123;50.906;6.172;2023-02-28T00:28:23;0.50;99.90
16038;DHT22;8123;50.906;6.172;2023-02-28T00:30:49;0.40;99.90
16038;DHT22;8123;50.906;6.172;2023-02-28T00:33:15;0.40;99.90
16038;DHT22;8123;50.906;6.172;2023-02-28T00:35:41;0.40;99.90
16038;DHT22;8123;50.906;6.172;2023-02-28T00:38:07;0.40;99.90
16038;DHT22;8123;50.906;6.172;2023-02-28T00:40:32;0.40;99.90
16038;DHT22;8123;50.906;6.172;2023-02-28T00:42:58;0.40;99.90
16038;DHT22;8123;50.906;6.172;2023-02-28T00:45:24;0.30;99.90
16038;DHT22;8123;50.906;6.172;2023-02-28T00:47:49;0.40;99.90
16038;DHT22;8123;50.906;6.172;2023-02-28T00:50:19;0.40;99.90
16038;DHT22;8123;50.906;6.172;2023-02-28T00:52:45;0.40;99.90
16038;DHT22;8123;50.906;6.172;2023-02-28T00:55:12;0.40;99.90
16038;DHT22;8123;50.906;6.172;2023-02-28T00:57:37;0.40;99.90
16038;DHT22;8123;50.906;6.172;2023-02-28T01:00:04;0.60;99.90
16038;DHT22;8123;50.906;6.172;2023-02-28T01:02:30;0.30;99.90
16038;DHT22;8123;50.906;6.172;2023-02-28T01:04:56;0.40;99.90
16038;DHT22;8123;50.906;6.172;2023-02-28T01:07:22;0.40;99.90
16038;DHT22;8123;50.906;6.172;2023-02-28T01:09:48;0.30;99.90
16038;DHT22;8123;50.906;6.172;2023-02-28T01:12:14;0.30;99.90
16038;DHT22;8123;50.906;6.172;2023-02-28T01:14:40;0.30;99.90
16038;DHT22;8123;50.906;6.172;2023-02-28T01:17:06;0.30;99.90
16038;DHT22;8123;50.906;6.172;2023-02-28T01:19:32;0.30;99.90
16038;DHT22;8123;50.906;6.172;2023-02-28T01:22:01;0.20;99.90
16038;DHT22;8123;50.906;6.172;2023-02-28T01:24:27;0.20;99.90
16038;DHT22;8123;50.906;6.172;2023-02-28T01:26:53;0.20;99.90
16038;DHT22;8123;50.906;6.172;2023-02-28T01:29:19;0.20;99.90
16038;DHT22;8123;50.906;6.172;2023-02-28T01:31:44;0.20;99.90
16038;DHT22;8123;50.906;6.172;2023-02-28T01:34:10;0.20;99.90
16038;DHT22;8123;50.906;6.172;2023-02-28T01:36:35;0.20;99.90
16038;DHT22;8123;50.906;6.172;2023-02-28T01:39:02;0.20;99.90
16038;DHT22;8123;50.906;6.172;2023-02-28T01:41:31;0.20;99.90
16038;DHT22;8123;50.906;6.172;2023-02-28T01:47:00;0.10;99.90
16038;DHT22;8123;50.906;6.172;2023-02-28T01:49:25;0.10;99.90
16038;DHT22;8123;50.906;6.172;2023-02-28T01:51:54;0.10;99.90
16038;DHT22;8123;50.906;6.172;2023-02-28T01:54:26;0.10;99.90
16038;DHT22;8123;50.906;6.172;2023-02-28T01:56:56;0.10;99.90
16038;DHT22;8123;50.906;6.172;2023-02-28T02:01:57;0.10;99.90
16038;DHT22;8123;50.906;6.172;2023-02-28T02:04:27;0.10;99.90
16038;DHT22;8123;50.906;6.172;2023-02-28T02:06:56;0.00;99.90
16038;DHT22;8123;50.906;6.172;2023-02-28T02:09:22;0.00;99.90
16038;DHT22;8123;50.906;6.172;2023-02-28T02:11:48;0.00;99.90
16038;DHT22;8123;50.906;6.172;2023-02-28T02:36:02;0.00;99.90
16038;DHT22;8123;50.906;6.172;2023-02-28T02:41:18;0.00;99.90
16038;DHT22;8123;50.906;6.172;2023-02-28T02:46:44;-0.10;99.90
16038;DHT22;8123;50.906;6.172;2023-02-28T02:49:21;-0.10;99.90
16038;DHT22;8123;50.906;6.172;2023-02-28T02:51:49;-0.10;99.90
16038;DHT22;8123;50.906;6.172;2023-02-28T02:54:30;-0.10;99.90
16038;DHT22;8123;50.906;6.172;2023-02-28T02:57:03;-0.10;99.90
16038;DHT22;8123;50.906;6.172;2023-02-28T02:59:30;0.00;99.90
16038;DHT22;8123;50.906;6.172;2023-02-28T03:02:00;0.10;99.90
16038;DHT22;8123;50.906;6.172;2023-02-28T03:04:30;0.10;99.90
16038;DHT22;8123;50.906;6.172;2023-02-28T03:06:56;0.10;99.90
16038;DHT22;8123;50.906;6.172;2023-02-28T03:09:23;0.10;99.90
16038;DHT22;8123;50.906;6.172;2023-02-28T03:11:51;0.10;99.90
16038;DHT22;8123;50.906;6.172;2023-02-28T03:18:08;0.20;99.90
16038;DHT22;8123;50.906;6.172;2023-02-28T03:21:23;0.10;99.90
16038;DHT22;8123;50.906;6.172;2023-02-28T03:26:24;0.10;99.90
16038;DHT22;8123;50.906;6.172;2023-02-28T03:31:30;0.10;99.90
16038;DHT22;8123;50.906;6.172;2023-02-28T03:37:04;0.10;99.90
16038;DHT22;8123;50.906;6.172;2023-02-28T03:39:40;0.10;99.90
16038;DHT22;8123;50.906;6.172;2023-02-28T03:42:15;0.00;99.90
16038;DHT22;8123;50.906;6.172;2023-02-28T03:44:48;0.00;99.90
16038;DHT22;8123;50.906;6.172;2023-02-28T03:47:23;0.00;99.90
16038;DHT22;8123;50.906;6.172;2023-02-28T03:49:54;-0.10;99.90
16038;DHT22;8123;50.906;6.172;2023-02-28T03:52:23;-0.10;99.90
16038;DHT22;8123;50.906;6.172;2023-02-28T03:54:56;-0.20;99.90
16038;DHT22;8123;50.906;6.172;2023-02-28T03:57:40;-0.20;99.90
16038;DHT22;8123;50.906;6.172;2023-02-28T04:00:21;-0.20;99.90
16038;DHT22;8123;50.906;6.172;2023-02-28T04:02:53;-0.20;99.90
16038;DHT22;8123;50.906;6.172;2023-02-28T04:05:21;-0.30;99.90
16038;DHT22;8123;50.906;6.172;2023-02-28T04:07:46;-0.40;99.90
16038;DHT22;8123;50.906;6.172;2023-02-28T04:10:13;-0.40;99.90
16038;DHT22;8123;50.906;6.172;2023-02-28T04:12:38;-0.50;99.90
16038;DHT22;8123;50.906;6.172;2023-02-28T04:15:05;-0.50;99.90
16038;DHT22;8123;50.906;6.172;2023-02-28T04:17:31;-0.60;99.90
16038;DHT22;8123;50.906;6.172;2023-02-28T04:19:56;-0.70;99.90
16038;DHT22;8123;50.906;6.172;2023-02-28T04:22:22;-0.70;99.90
16038;DHT22;8123;50.906;6.172;2023-02-28T04:24:51;-0.80;99.90
16038;DHT22;8123;50.906;6.172;2023-02-28T04:27:16;-0.90;99.90
16038;DHT22;8123;50.906;6.172;2023-02-28T04:29:42;-0.80;99.90
16038;DHT22;8123;50.906;6.172;2023-02-28T04:32:10;-0.80;99.90
16038;DHT22;8123;50.906;6.172;2023-02-28T04:34:36;-0.80;99.90
16038;DHT22;8123;50.906;6.172;2023-02-28T04:37:02;-0.70;99.90
16038;DHT22;8123;50.906;6.172;2023-02-28T04:39:28;-0.60;99.90
16038;DHT22;8123;50.906;6.172;2023-02-28T04:41:55;-0.50;99.90
16038;DHT22;8123;50.906;6.172;2023-02-28T04:44:22;-0.40;99.90
16038;DHT22;8123;50.906;6.172;2023-02-28T04:46:48;-0.30;99.90
16038;DHT22;8123;50.906;6.172;2023-02-28T04:49:14;-0.30;99.90
16038;DHT22;8123;50.906;6.172;2023-02-28T04:51:40;-0.20;99.90
16038;DHT22;8123;50.906;6.172;2023-02-28T04:54:06;-0.20;99.90
16038;DHT22;8123;50.906;6.172;2023-02-28T04:56:32;-0.20;99.90
16038;DHT22;8123;50.906;6.172;2023-02-28T04:58:58;-0.20;99.90
16038;DHT22;8123;50.906;6.172;2023-02-28T05:01:26;-0.30;99.90
16038;DHT22;8123;50.906;6.172;2023-02-28T05:03:54;-0.40;99.90
16038;DHT22;8123;50.906;6.172;2023-02-28T05:06:21;-0.40;99.90
16038;DHT22;8123;50.906;6.172;2023-02-28T05:08:49;-0.40;99.90
16038;DHT22;8123;50.906;6.172;2023-02-28T05:11:18;-0.50;99.90
16038;DHT22;8123;50.906;6.172;2023-02-28T05:13:44;-0.50;99.90
16038;DHT22;8123;50.906;6.172;2023-02-28T05:16:10;-0.50;99.90
16038;DHT22;8123;50.906;6.172;2023-02-28T05:18:36;-0.60;99.90
16038;DHT22;8123;50.906;6.172;2023-02-28T05:21:01;-0.70;99.90
16038;DHT22;8123;50.906;6.172;2023-02-28T05:23:27;-0.70;99.90
16038;DHT22;8123;50.906;6.172;2023-02-28T05:25:53;-0.70;99.90
16038;DHT22;8123;50.906;6.172;2023-02-28T05:28:19;-0.70;99.90
16038;DHT22;8123;50.906;6.172;2023-02-28T05:30:45;-0.80;99.90
16038;DHT22;8123;50.906;6.172;2023-02-28T05:33:11;-0.80;99.90
16038;DHT22;8123;50.906;6.172;2023-02-28T05:35:41;-0.90;99.90
16038;DHT22;8123;50.906;6.172;2023-02-28T05:38:08;-0.90;99.90
16038;DHT22;8123;50.906;6.172;2023-02-28T05:40:34;-0.90;99.90
16038;DHT22;8123;50.906;6.172;2023-02-28T05:42:59;-0.90;99.90
16038;DHT22;8123;50.906;6.172;2023-02-28T05:45:25;-0.90;99.90
16038;DHT22;8123;50.906;6.172;2023-02-28T05:47:54;-0.90;99.90
16038;DHT22;8123;50.906;6.172;2023-02-28T05:50:20;-0.90;99.90
16038;DHT22;8123;50.906;6.172;2023-02-28T05:52:50;-1.00;99.90
16038;DHT22;8123;50.906;6.172;2023-02-28T05:55:15;-1.00;99.90
16038;DHT22;8123;50.906;6.172;2023-02-28T05:57:41;-1.00;99.90
16038;DHT22;8123;50.906;6.172;2023-02-28T06:00:08;-1.00;99.90
16038;DHT22;8123;50.906;6.172;2023-02-28T06:02:34;-1.00;99.90
16038;DHT22;8123;50.906;6.172;2023-02-28T06:05:00;-1.00;99.90
16038;DHT22;8123;50.906;6.172;2023-02-28T06:07:25;-1.10;99.90
16038;DHT22;8123;50.906;6.172;2023-02-28T06:09:51;-1.10;99.90
16038;DHT22;8123;50.906;6.172;2023-02-28T06:12:17;-1.00;99.90
16038;DHT22;8123;50.906;6.172;2023-02-28T06:14:43;-1.10;99.90
16038;DHT22;8123;50.906;6.172;2023-02-28T06:17:09;-1.00;99.90
16038;DHT22;8123;50.906;6.172;2023-02-28T06:19:37;-1.10;99.90
16038;DHT22;8123;50.906;6.172;2023-02-28T06:22:04;-1.10;99.90
16038;DHT22;8123;50.906;6.172;2023-02-28T06:24:30;-0.30;99.90
16038;DHT22;8123;50.906;6.172;2023-02-28T06:26:56;-1.10;99.90
16038;DHT22;8123;50.906;6.172;2023-02-28T06:29:24;-1.10;99.90
16038;DHT22;8123;50.906;6.172;2023-02-28T06:31:50;-1.00;99.90
16038;DHT22;8123;50.906;6.172;2023-02-28T06:34:16;-1.10;99.90
16038;DHT22;8123;50.906;6.172;2023-02-28T06:36:42;-1.10;99.90
16038;DHT22;8123;50.906;6.172;2023-02-28T06:39:08;-1.10;99.90
16038;DHT22;8123;50.906;6.172;2023-02-28T06:41:34;-1.10;99.90
16038;DHT22;8123;50.906;6.172;2023-02-28T06:44:16;-1.00;99.90
16038;DHT22;8123;50.906;6.172;2023-02-28T06:46:44;-1.00;99.90
16038;DHT22;8123;50.906;6.172;2023-02-28T06:49:11;-1.00;99.90
16038;DHT22;8123;50.906;6.172;2023-02-28T06:51:39;-1.00;99.90
16038;DHT22;8123;50.906;6.172;2023-02-28T06:54:05;-1.00;99.90
16038;DHT22;8123;50.906;6.172;2023-02-28T06:56:30;-1.00;99.90
16038;DHT22;8123;50.906;6.172;2023-02-28T06:58:56;-1.00;99.90
16038;DHT22;8123;50.906;6.172;2023-02-28T07:01:22;-0.90;99.90
16038;DHT22;8123;50.906;6.172;2023-02-28T07:03:49;-0.90;99.90
16038;DHT22;8123;50.906;6.172;2023-02-28T07:06:19;-0.90;99.90
16038;DHT22;8123;50.906;6.172;2023-02-28T07:08:45;-0.90;99.90
16038;DHT22;8123;50.906;6.172;2023-02-28T07:11:11;-0.80;99.90
16038;DHT22;8123;50.906;6.172;2023-02-28T07:13:36;-0.80;99.90
16038;DHT22;8123;50.906;6.172;2023-02-28T07:16:07;-0.80;99.90
16038;DHT22;8123;50.906;6.172;2023-02-28T07:18:34;-0.70;99.90
16038;DHT22;8123;50.906;6.172;2023-02-28T07:21:02;-0.70;99.90
16038;DHT22;8123;50.906;6.172;2023-02-28T07:23:28;-0.70;99.90
16038;DHT22;8123;50.906;6.172;2023-02-28T07:25:53;-0.60;99.90
16038;DHT22;8123;50.906;6.172;2023-02-28T07:28:19;-0.60;99.90
16038;DHT22;8123;50.906;6.172;2023-02-28T07:30:45;-0.50;99.90
16038;DHT22;8123;50.906;6.172;2023-02-28T07:33:10;-0.50;99.90
16038;DHT22;8123;50.906;6.172;2023-02-28T07:35:36;-0.50;99.90
16038;DHT22;8123;50.906;6.172;2023-02-28T07:38:02;-0.40;99.90
16038;DHT22;8123;50.906;6.172;2023-02-28T07:40:28;-0.30;99.90
16038;DHT22;8123;50.906;6.172;2023-02-28T07:42:54;-0.30;99.90
16038;DHT22;8123;50.906;6.172;2023-02-28T07:45:21;-0.30;99.90
16038;DHT22;8123;50.906;6.172;2023-02-28T07:47:46;-0.30;99.90
16038;DHT22;8123;50.906;6.172;2023-02-28T07:50:14;-0.20;99.90
16038;DHT22;8123;50.906;6.172;2023-02-28T07:52:41;-0.20;99.90
16038;DHT22;8123;50.906;6.172;2023-02-28T07:55:08;-0.10;99.90
16038;DHT22;8123;50.906;6.172;2023-02-28T07:57:35;-0.10;99.90
16038;DHT22;8123;50.906;6.172;2023-02-28T08:00:01;-0.10;99.90
16038;DHT22;8123;50.906;6.172;2023-02-28T08:02:26;0.00;99.90
16038;DHT22;8123;50.906;6.172;2023-02-28T08:04:52;0.10;99.90
16038;DHT22;8123;50.906;6.172;2023-02-28T08:07:18;0.10;99.90
16038;DHT22;8123;50.906;6.172;2023-02-28T08:09:44;0.20;99.90
16038;DHT22;8123;50.906;6.172;2023-02-28T08:12:11;0.20;99.90
16038;DHT22;8123;50.906;6.172;2023-02-28T08:14:37;0.30;99.90
16038;DHT22;8123;50.906;6.172;2023-02-28T08:17:04;0.30;99.90
16038;DHT22;8123;50.906;6.172;2023-02-28T08:19:30;0.40;99.90
16038;DHT22;8123;50.906;6.172;2023-02-28T08:21:56;0.50;99.90
16038;DHT22;8123;50.906;6.172;2023-02-28T08:24:22;0.50;99.90
16038;DHT22;8123;50.906;6.172;2023-02-28T08:26:49;0.90;99.90
16038;DHT22;8123;50.906;6.172;2023-02-28T08:29:15;0.70;99.90
16038;DHT22;8123;50.906;6.172;2023-02-28T08:31:41;0.70;99.90
16038;DHT22;8123;50.906;6.172;2023-02-28T08:34:12;0.80;99.90
16038;DHT22;8123;50.906;6.172;2023-02-28T08:36:38;0.90;99.90
16038;DHT22;8123;50.906;6.172;2023-02-28T08:39:05;0.90;99.90
16038;DHT22;8123;50.906;6.172;2023-02-28T08:41:31;0.90;99.90
16038;DHT22;8123;50.906;6.172;2023-02-28T08:43:57;0.90;99.90
16038;DHT22;8123;50.906;6.172;2023-02-28T08:46:23;1.00;99.90
16038;DHT22;8123;50.906;6.172;2023-02-28T08:48:54;1.10;99.90
16038;DHT22;8123;50.906;6.172;2023-02-28T08:51:20;1.10;99.90
16038;DHT22;8123;50.906;6.172;2023-02-28T08:53:52;1.20;99.90
16038;DHT22;8123;50.906;6.172;2023-02-28T08:56:18;1.30;99.90
16038;DHT22;8123;50.906;6.172;2023-02-28T08:58:46;1.40;99.90
16038;DHT22;8123;50.906;6.172;2023-02-28T09:01:14;1.40;99.90
16038;DHT22;8123;50.906;6.172;2023-02-28T09:03:41;1.50;99.90
16038;DHT22;8123;50.906;6.172;2023-02-28T09:06:08;1.50;99.90
16038;DHT22;8123;50.906;6.172;2023-02-28T09:08:34;1.60;99.90
16038;DHT22;8123;50.906;6.172;2023-02-28T09:11:00;1.60;99.90
16038;DHT22;8123;50.906;6.172;2023-02-28T09:13:26;1.70;99.90
16038;DHT22;8123;50.906;6.172;2023-02-28T09:15:53;1.80;99.90
16038;DHT22;8123;50.906;6.172;2023-02-28T09:18:18;1.70;99.90
16038;DHT22;8123;50.906;6.172;2023-02-28T09:20:44;1.90;99.90
16038;DHT22;8123;50.906;6.172;2023-02-28T09:23:11;2.20;99.90
16038;DHT22;8123;50.906;6.172;2023-02-28T09:25:37;2.00;99.90
16038;DHT22;8123;50.906;6.172;2023-02-28T09:28:03;2.00;99.90
16038;DHT22;8123;50.906;6.172;2023-02-28T09:30:30;2.10;99.90
16038;DHT22;8123;50.906;6.172;2023-02-28T09:32:56;2.10;99.90
16038;DHT22;8123;50.906;6.172;2023-02-28T09:35:22;2.20;99.90
16038;DHT22;8123;50.906;6.172;2023-02-28T09:37:50;2.20;99.90
16038;DHT22;8123;50.906;6.172;2023-02-28T09:40:20;2.20;99.90
16038;DHT22;8123;50.906;6.172;2023-02-28T09:42:49;2.20;99.90
16038;DHT22;8123;50.906;6.172;2023-02-28T09:45:26;2.30;99.90
16038;DHT22;8123;50.906;6.172;2023-02-28T09:47:57;2.30;99.90
16038;DHT22;8123;50.906;6.172;2023-02-28T09:50:31;2.30;99.90
16038;DHT22;8123;50.906;6.172;2023-02-28T09:52:59;2.40;99.90
16038;DHT22;8123;50.906;6.172;2023-02-28T09:55:37;2.50;99.90
16038;DHT22;8123;50.906;6.172;2023-02-28T09:58:05;2.50;99.90
16038;DHT22;8123;50.906;6.172;2023-02-28T10:00:33;2.50;99.90
16038;DHT22;8123;50.906;6.172;2023-02-28T10:03:44;2.50;99.90
16038;DHT22;8123;50.906;6.172;2023-02-28T10:06:26;2.60;99.90
16038;DHT22;8123;50.906;6.172;2023-02-28T10:09:07;2.70;99.90
16038;DHT22;8123;50.906;6.172;2023-02-28T10:11:36;2.90;99.90
16038;DHT22;8123;50.906;6.172;2023-02-28T10:14:22;2.70;99.90
16038;DHT22;8123;50.906;6.172;2023-02-28T10:17:04;2.80;99.90
16038;DHT22;8123;50.906;6.172;2023-02-28T10:25:26;3.00;99.90
16038;DHT22;8123;50.906;6.172;2023-02-28T10:28:05;3.00;99.90
16038;DHT22;8123;50.906;6.172;2023-02-28T10:30:34;3.40;99.90
16038;DHT22;8123;50.906;6.172;2023-02-28T10:33:00;3.50;99.90
16038;DHT22;8123;50.906;6.172;2023-02-28T10:35:26;3.30;99.90
16038;DHT22;8123;50.906;6.172;2023-02-28T10:37:57;3.20;99.90
16038;DHT22;8123;50.906;6.172;2023-02-28T10:45:26;3.00;99.90
16038;DHT22;8123;50.906;6.172;2023-02-28T10:48:00;3.00;99.90
16038;DHT22;8123;50.906;6.172;2023-02-28T10:50:51;3.00;99.90
16038;DHT22;8123;50.906;6.172;2023-02-28T11:01:18;3.10;99.90
16038;DHT22;8123;50.906;6.172;2023-02-28T11:03:44;3.20;99.90
16038;DHT22;8123;50.906;6.172;2023-02-28T11:06:17;3.20;99.90
16038;DHT22;8123;50.906;6.172;2023-02-28T11:08:50;3.20;99.90
16038;DHT22;8123;50.906;6.172;2023-02-28T11:11:17;3.20;99.90
16038;DHT22;8123;50.906;6.172;2023-02-28T11:13:44;3.30;99.90
16038;DHT22;8123;50.906;6.172;2023-02-28T11:16:12;3.40;99.90
16038;DHT22;8123;50.906;6.172;2023-02-28T11:18:43;3.40;99.90
16038;DHT22;8123;50.906;6.172;2023-02-28T11:21:18;3.40;99.90
16038;DHT22;8123;50.906;6.172;2023-02-28T11:23:44;3.50;99.90
16038;DHT22;8123;50.906;6.172;2023-02-28T11:26:10;3.60;99.90
16038;DHT22;8123;50.906;6.172;2023-02-28T11:28:41;3.60;99.90
16038;DHT22;8123;50.906;6.172;2023-02-28T11:36:16;3.60;99.90
16038;DHT22;8123;50.906;6.172;2023-02-28T11:38:43;3.60;99.90
16038;DHT22;8123;50.906;6.172;2023-02-28T11:41:34;3.80;99.90
16038;DHT22;8123;50.906;6.172;2023-02-28T11:44:40;3.60;99.90
16038;DHT22;8123;50.906;6.172;2023-02-28T11:47:13;3.70;99.90
16038;DHT22;8123;50.906;6.172;2023-02-28T11:53:00;3.70;99.90
16038;DHT22;8123;50.906;6.172;2023-02-28T12:06:23;4.00;99.90
16038;DHT22;8123;50.906;6.172;2023-02-28T12:28:31;4.30;99.90
16038;DHT22;8123;50.906;6.172;2023-02-28T12:31:14;4.20;99.90
16038;DHT22;8123;50.906;6.172;2023-02-28T12:34:20;4.10;99.90
16038;DHT22;8123;50.906;6.172;2023-02-28T12:36:39;4.20;99.90
16038;DHT22;8123;50.906;6.172;2023-02-28T12:39:15;4.20;99.90
16038;DHT22;8123;50.906;6.172;2023-02-28T12:44:40;4.40;99.90
16038;DHT22;8123;50.906;6.172;2023-02-28T12:47:14;4.40;99.90
16038;DHT22;8123;50.906;6.172;2023-02-28T12:52:11;4.50;99.90
16038;DHT22;8123;50.906;6.172;2023-02-28T12:54:56;4.40;99.90
16038;DHT22;8123;50.906;6.172;2023-02-28T13:00:02;4.20;99.90
16038;DHT22;8123;50.906;6.172;2023-02-28T13:08:04;4.20;99.90
16038;DHT22;8123;50.906;6.172;2023-02-28T13:10:45;4.10;99.90
16038;DHT22;8123;50.906;6.172;2023-02-28T13:13:28;4.20;99.90
16038;DHT22;8123;50.906;6.172;2023-02-28T13:16:10;4.10;99.90
16038;DHT22;8123;50.906;6.172;2023-02-28T13:18:42;4.20;99.90
16038;DHT22;8123;50.906;6.172;2023-02-28T13:24:08;4.40;99.90
16038;DHT22;8123;50.906;6.172;2023-02-28T13:29:21;4.20;99.90
16038;DHT22;8123;50.906;6.172;2023-02-28T13:34:35;4.20;99.90
16038;DHT22;8123;50.906;6.172;2023-02-28T13:39:53;4.20;99.90
16038;DHT22;8123;50.906;6.172;2023-02-28T13:47:34;4.30;99.90
16038;DHT22;8123;50.906;6.172;2023-02-28T13:50:36;4.30;99.90
16038;DHT22;8123;50.906;6.172;2023-02-28T13:58:55;4.30;99.90
16038;DHT22;8123;50.906;6.172;2023-02-28T14:01:42;4.30;99.90
16038;DHT22;8123;50.906;6.172;2023-02-28T14:04:38;4.30;99.90
16038;DHT22;8123;50.906;6.172;2023-02-28T14:07:08;4.40;99.90
16038;DHT22;8123;50.906;6.172;2023-02-28T14:09:40;4.30;99.90
16038;DHT22;8123;50.906;6.172;2023-02-28T14:18:03;4.50;99.90
16038;DHT22;8123;50.906;6.172;2023-02-28T14:20:32;4.70;99.90
16038;DHT22;8123;50.906;6.172;2023-02-28T14:23:18;4.50;99.90
16038;DHT22;8123;50.906;6.172;2023-02-28T14:28:55;4.60;99.90
16038;DHT22;8123;50.906;6.172;2023-02-28T14:34:31;5.00;99.90
16038;DHT22;8123;50.906;6.172;2023-02-28T14:37:02;4.60;99.90
16038;DHT22;8123;50.906;6.172;2023-02-28T14:39:30;4.70;99.90
16038;DHT22;8123;50.906;6.172;2023-02-28T14:41:56;4.60;99.90
16038;DHT22;8123;50.906;6.172;2023-02-28T14:44:31;4.50;99.90
16038;DHT22;8123;50.906;6.172;2023-02-28T14:47:01;4.70;99.90
16038;DHT22;8123;50.906;6.172;2023-02-28T14:49:35;5.30;99.90
16038;DHT22;8123;50.906;6.172;2023-02-28T14:52:15;5.30;99.90
16038;DHT22;8123;50.906;6.172;2023-02-28T14:54:43;4.60;99.90
16038;DHT22;8123;50.906;6.172;2023-02-28T15:02:46;4.60;99.90
16038;DHT22;8123;50.906;6.172;2023-02-28T15:07:40;4.60;99.90
16038;DHT22;8123;50.906;6.172;2023-02-28T15:10:19;4.70;99.90
16038;DHT22;8123;50.906;6.172;2023-02-28T15:13:10;4.70;99.90
16038;DHT22;8123;50.906;6.172;2023-02-28T15:18:26;4.70;99.90
16038;DHT22;8123;50.906;6.172;2023-02-28T15:20:53;4.80;99.90
16038;DHT22;8123;50.906;6.172;2023-02-28T15:23:21;4.70;99.90
16038;DHT22;8123;50.906;6.172;2023-02-28T15:25:48;4.70;99.90
16038;DHT22;8123;50.906;6.172;2023-02-28T15:28:19;5.00;99.90
16038;DHT22;8123;50.906;6.172;2023-02-28T15:31:02;5.00;99.90
16038;DHT22;8123;50.906;6.172;2023-02-28T15:33:30;4.70;99.90
16038;DHT22;8123;50.906;6.172;2023-02-28T15:36:14;4.70;99.90
16038;DHT22;8123;50.906;6.172;2023-02-28T15:38:41;4.60;99.90
16038;DHT22;8123;50.906;6.172;2023-02-28T15:41:23;4.70;99.90
16038;DHT22;8123;50.906;6.172;2023-02-28T15:44:28;4.60;99.90
16038;DHT22;8123;50.906;6.172;2023-02-28T15:47:12;4.70;99.90
16038;DHT22;8123;50.906;6.172;2023-02-28T15:50:00;4.90;99.90
16038;DHT22;8123;50.906;6.172;2023-02-28T15:52:42;4.60;99.90
16038;DHT22;8123;50.906;6.172;2023-02-28T15:55:21;4.60;99.90
16038;DHT22;8123;50.906;6.172;2023-02-28T15:57:56;4.60;99.90
16038;DHT22;8123;50.906;6.172;2023-02-28T16:00:26;4.60;99.90
16038;DHT22;8123;50.906;6.172;2023-02-28T16:02:52;4.70;99.90
16038;DHT22;8123;50.906;6.172;2023-02-28T16:05:36;4.60;99.90
16038;DHT22;8123;50.906;6.172;2023-02-28T16:08:13;4.60;99.90
16038;DHT22;8123;50.906;6.172;2023-02-28T16:10:38;4.60;99.90
16038;DHT22;8123;50.906;6.172;2023-02-28T16:13:04;5.20;99.90
16038;DHT22;8123;50.906;6.172;2023-02-28T16:15:35;4.50;99.90
16038;DHT22;8123;50.906;6.172;2023-02-28T16:18:09;4.70;99.90
16038;DHT22;8123;50.906;6.172;2023-02-28T16:20:36;4.80;99.90
16038;DHT22;8123;50.906;6.172;2023-02-28T16:23:02;5.00;99.90
16038;DHT22;8123;50.906;6.172;2023-02-28T16:25:38;4.50;99.90
16038;DHT22;8123;50.906;6.172;2023-02-28T16:28:19;4.90;99.90
16038;DHT22;8123;50.906;6.172;2023-02-28T16:30:46;4.60;99.90
16038;DHT22;8123;50.906;6.172;2023-02-28T16:33:11;4.50;99.90
16038;DHT22;8123;50.906;6.172;2023-02-28T16:35:37;5.20;99.90
16038;DHT22;8123;50.906;6.172;2023-02-28T16:38:04;4.90;99.90
16038;DHT22;8123;50.906;6.172;2023-02-28T16:40:34;5.20;99.90
16038;DHT22;8123;50.906;6.172;2023-02-28T16:43:05;4.40;99.90
16038;DHT22;8123;50.906;6.172;2023-02-28T16:45:32;4.40;99.90
16038;DHT22;8123;50.906;6.172;2023-02-28T16:47:59;4.40;99.90
16038;DHT22;8123;50.906;6.172;2023-02-28T16:50:29;4.50;99.90
16038;DHT22;8123;50.906;6.172;2023-02-28T16:52:56;4.40;99.90
16038;DHT22;8123;50.906;6.172;2023-02-28T16:55:23;4.30;99.90
16038;DHT22;8123;50.906;6.172;2023-02-28T16:57:58;4.20;99.90
16038;DHT22;8123;50.906;6.172;2023-02-28T17:00:25;4.20;99.90
16038;DHT22;8123;50.906;6.172;2023-02-28T17:02:51;4.10;99.90
16038;DHT22;8123;50.906;6.172;2023-02-28T17:05:17;4.90;99.90
16038;DHT22;8123;50.906;6.172;2023-02-28T17:07:44;4.50;99.90
16038;DHT22;8123;50.906;6.172;2023-02-28T17:10:21;4.50;99.90
16038;DHT22;8123;50.906;6.172;2023-02-28T17:12:48;4.20;99.90
16038;DHT22;8123;50.906;6.172;2023-02-28T17:15:15;3.90;99.90
16038;DHT22;8123;50.906;6.172;2023-02-28T17:17:41;3.90;99.90
16038;DHT22;8123;50.906;6.172;2023-02-28T17:20:20;3.80;99.90
16038;DHT22;8123;50.906;6.172;2023-02-28T17:22:50;3.70;99.90
16038;DHT22;8123;50.906;6.172;2023-02-28T17:25:16;3.60;99.90
16038;DHT22;8123;50.906;6.172;2023-02-28T17:27:42;3.60;99.90
16038;DHT22;8123;50.906;6.172;2023-02-28T17:32:43;3.40;99.90
16038;DHT22;8123;50.906;6.172;2023-02-28T17:35:09;3.50;99.90
16038;DHT22;8123;50.906;6.172;2023-02-28T17:37:35;3.40;99.90
16038;DHT22;8123;50.906;6.172;2023-02-28T17:40:01;4.40;99.90
16038;DHT22;8123;50.906;6.172;2023-02-28T17:42:27;3.40;99.90
16038;DHT22;8123;50.906;6.172;2023-02-28T17:44:52;3.60;99.90
16038;DHT22;8123;50.906;6.172;2023-02-28T17:47:18;3.30;99.90
16038;DHT22;8123;50.906;6.172;2023-02-28T17:49:44;3.20;99.90
16038;DHT22;8123;50.906;6.172;2023-02-28T17:52:09;3.20;99.90
16038;DHT22;8123;50.906;6.172;2023-02-28T17:54:35;3.20;99.90
16038;DHT22;8123;50.906;6.172;2023-02-28T17:57:00;3.20;99.90
16038;DHT22;8123;50.906;6.172;2023-02-28T17:59:26;3.10;99.90
16038;DHT22;8123;50.906;6.172;2023-02-28T18:01:59;3.10;99.90
16038;DHT22;8123;50.906;6.172;2023-02-28T18:04:25;3.00;99.90
16038;DHT22;8123;50.906;6.172;2023-02-28T18:06:53;3.00;99.90
16038;DHT22;8123;50.906;6.172;2023-02-28T18:09:23;3.00;99.90
16038;DHT22;8123;50.906;6.172;2023-02-28T18:11:53;3.60;99.90
16038;DHT22;8123;50.906;6.172;2023-02-28T18:14:21;2.90;99.90
16038;DHT22;8123;50.906;6.172;2023-02-28T18:16:48;2.90;99.90
16038;DHT22;8123;50.906;6.172;2023-02-28T18:19:14;2.80;99.90
16038;DHT22;8123;50.906;6.172;2023-02-28T18:21:44;2.80;99.90
16038;DHT22;8123;50.906;6.172;2023-02-28T18:24:11;2.80;99.90
16038;DHT22;8123;50.906;6.172;2023-02-28T18:26:38;2.70;99.90
16038;DHT22;8123;50.906;6.172;2023-02-28T18:29:04;2.90;99.90
16038;DHT22;8123;50.906;6.172;2023-02-28T18:31:31;2.70;99.90
16038;DHT22;8123;50.906;6.172;2023-02-28T18:33:57;2.60;99.90
16038;DHT22;8123;50.906;6.172;2023-02-28T18:36:23;2.60;99.90
16038;DHT22;8123;50.906;6.172;2023-02-28T18:38:49;2.60;99.90
16038;DHT22;8123;50.906;6.172;2023-02-28T18:41:16;2.50;99.90
16038;DHT22;8123;50.906;6.172;2023-02-28T18:43:42;2.50;99.90
16038;DHT22;8123;50.906;6.172;2023-02-28T18:46:11;2.40;99.90
16038;DHT22;8123;50.906;6.172;2023-02-28T18:48:37;2.40;99.90
16038;DHT22;8123;50.906;6.172;2023-02-28T18:51:11;2.40;99.90
16038;DHT22;8123;50.906;6.172;2023-02-28T18:53:38;2.40;99.90
16038;DHT22;8123;50.906;6.172;2023-02-28T18:56:05;2.30;99.90